createdAt,value
2023-04-02T00:01:46.297Z,11.68
2023-04-02T00:05:18.788Z,8.10
2023-04-02T00:08:41.643Z,9.60
2023-04-02T00:11:55.281Z,8.48
2023-04-02T00:14:59.724Z,15.65
2023-04-02T00:18:04.593Z,10.13
2023-04-02T00:21:33.107Z,9.10
2023-04-02T00:24:36.457Z,6.38
2023-04-02T00:27:41.296Z,6.70
2023-04-02T00:30:54.097Z,9.18
2023-04-02T00:33:58.941Z,5.88
2023-04-02T00:37:03.572Z,13.85
2023-04-02T00:40:20.825Z,5.80
2023-04-02T00:43:26.724Z,5.10
2023-04-02T00:46:47.824Z,8.63
2023-04-02T00:49:58.133Z,17.40
2023-04-02T00:53:10.372Z,5.75
2023-04-02T00:56:19.772Z,6.80
2023-04-02T00:59:30.928Z,11.85
2023-04-02T01:02:38.891Z,9.50
2023-04-02T01:05:45.905Z,12.55
2023-04-02T01:09:21.906Z,10.38
2023-04-02T01:12:45.781Z,5.38
2023-04-02T01:16:12.916Z,8.13
2023-04-02T01:19:46.200Z,5.95
2023-04-02T01:23:12.172Z,10.45
2023-04-02T01:26:37.794Z,12.77
2023-04-02T01:30:01.338Z,7.88
2023-04-02T01:33:07.837Z,6.32
2023-04-02T01:36:26.835Z,8.48
2023-04-02T01:39:36.061Z,9.57
2023-04-02T01:42:57.555Z,4.47
2023-04-02T01:46:07.805Z,7.95
2023-04-02T01:49:22.818Z,6.00
2023-04-02T01:52:37.240Z,7.23
2023-04-02T01:55:49.242Z,4.50
2023-04-02T01:58:53.719Z,3.95
2023-04-02T02:02:10.295Z,12.45
2023-04-02T02:05:19.339Z,4.37
2023-04-02T02:08:45.714Z,5.90
2023-04-02T02:11:52.324Z,3.40
2023-04-02T02:14:55.371Z,3.92
2023-04-02T02:18:04.563Z,6.40
2023-04-02T02:21:11.275Z,2.92
2023-04-02T02:24:25.796Z,4.13
2023-04-02T02:27:29.901Z,2.75
2023-04-02T02:31:18.193Z,7.03
2023-04-02T02:34:36.873Z,6.13
2023-04-02T02:37:45.695Z,13.48
2023-04-02T02:40:54.718Z,10.70
2023-04-02T02:44:07.718Z,9.05
2023-04-02T02:47:23.151Z,4.95
2023-04-02T02:50:32.554Z,3.28
2023-04-02T02:53:52.259Z,5.60
2023-04-02T02:57:04.216Z,7.45
2023-04-02T03:00:14.204Z,8.45
2023-04-02T03:03:22.656Z,6.82
2023-04-02T03:06:31.429Z,4.10
2023-04-02T03:09:42.553Z,9.65
2023-04-02T03:12:55.773Z,13.45
2023-04-02T03:16:17.292Z,7.95
2023-04-02T03:20:02.334Z,9.00
2023-04-02T03:23:29.153Z,11.50
2023-04-02T03:26:43.070Z,10.85
2023-04-02T03:30:06.815Z,10.02
2023-04-02T03:33:22.416Z,9.70
2023-04-02T03:36:29.579Z,9.18
2023-04-02T03:39:46.109Z,6.72
2023-04-02T03:42:56.609Z,9.73
2023-04-02T03:46:37.793Z,15.27
2023-04-02T03:50:08.393Z,7.55
2023-04-02T03:53:13.623Z,4.43
2023-04-02T03:56:28.313Z,7.60
2023-04-02T03:59:47.329Z,6.83
2023-04-02T04:03:00.991Z,21.02
2023-04-02T04:06:25.587Z,21.15
2023-04-02T04:09:39.916Z,9.68
2023-04-02T04:12:49.103Z,10.33
2023-04-02T04:16:01.592Z,16.88
2023-04-02T04:19:18.603Z,10.40
2023-04-02T04:22:34.852Z,12.45
2023-04-02T04:25:51.179Z,13.37
2023-04-02T04:29:16.367Z,11.13
2023-04-02T04:32:32.784Z,18.63
2023-04-02T04:35:55.193Z,13.93
2023-04-02T04:39:07.985Z,15.60
2023-04-02T04:42:21.681Z,12.05
2023-04-02T04:45:45.752Z,10.70
2023-04-02T04:49:04.079Z,8.35
2023-04-02T04:52:11.337Z,8.53
2023-04-02T04:55:29.053Z,6.80
2023-04-02T04:59:01.519Z,10.25
2023-04-02T05:02:31.372Z,7.95
2023-04-02T05:05:40.039Z,8.47
2023-04-02T05:08:49.704Z,12.52
2023-04-02T05:12:08.802Z,8.63
2023-04-02T05:15:16.273Z,7.85
2023-04-02T05:18:38.859Z,9.80
2023-04-02T05:22:01.456Z,9.00
2023-04-02T05:25:09.992Z,7.07
2023-04-02T05:28:31.240Z,12.38
2023-04-02T05:31:47.226Z,5.55
2023-04-02T05:34:55.957Z,7.28
2023-04-02T05:38:02.288Z,5.20
2023-04-02T05:41:30.963Z,10.48
2023-04-02T05:44:42.192Z,7.40
2023-04-02T05:47:52.742Z,7.78
2023-04-02T05:51:05.564Z,8.48
2023-04-02T05:54:24.054Z,8.15
2023-04-02T05:57:52.839Z,8.17
2023-04-02T06:01:16.270Z,13.70
2023-04-02T06:04:53.110Z,8.77
2023-04-02T06:08:07.278Z,19.40
2023-04-02T06:11:17.279Z,7.30
2023-04-02T06:14:22.288Z,8.20
2023-04-02T06:17:26.138Z,9.52
2023-04-02T06:20:30.025Z,11.20
2023-04-02T06:24:13.694Z,11.03
2023-04-02T06:27:20.768Z,8.43
2023-04-02T06:30:40.459Z,5.22
2023-04-02T06:33:44.463Z,5.43
2023-04-02T06:36:52.253Z,7.43
2023-04-02T06:39:59.411Z,6.18
2023-04-02T06:43:09.583Z,14.27
2023-04-02T06:46:43.277Z,8.88
2023-04-02T06:50:07.269Z,15.52
2023-04-02T06:53:22.553Z,13.15
2023-04-02T06:56:48.760Z,9.27
2023-04-02T07:00:01.927Z,11.07
2023-04-02T07:03:10.064Z,10.10
2023-04-02T07:06:19.961Z,17.83
2023-04-02T07:09:26.568Z,9.23
2023-04-02T07:12:32.664Z,6.88
2023-04-02T07:15:36.260Z,6.80
2023-04-02T07:18:40.639Z,10.82
2023-04-02T07:21:44.619Z,8.33
2023-04-02T07:24:48.599Z,12.85
2023-04-02T07:27:53.225Z,7.82
2023-04-02T07:30:57.429Z,11.90
2023-04-02T07:34:02.048Z,10.05
2023-04-02T07:37:05.931Z,10.90
2023-04-02T07:40:23.762Z,12.18
2023-04-02T07:43:27.434Z,8.50
2023-04-02T07:46:31.426Z,9.25
2023-04-02T07:49:35.313Z,5.75
2023-04-02T07:52:45.031Z,8.60
2023-04-02T07:55:53.378Z,6.55
2023-04-02T07:58:57.223Z,9.45
2023-04-02T08:02:00.536Z,9.13
2023-04-02T08:05:04.387Z,7.13
2023-04-02T08:08:07.742Z,5.33
2023-04-02T08:11:12.054Z,7.38
2023-04-02T08:14:16.182Z,7.35
2023-04-02T08:17:19.962Z,9.75
2023-04-02T08:20:24.348Z,9.17
2023-04-02T08:23:28.382Z,15.88
2023-04-02T08:26:32.695Z,15.82
2023-04-02T08:29:36.581Z,13.38
2023-04-02T08:32:42.017Z,12.40
2023-04-02T08:35:47.258Z,8.85
2023-04-02T08:38:50.630Z,12.95
2023-04-02T08:42:03.719Z,10.30
2023-04-02T08:48:24.847Z,8.82
2023-04-02T08:51:33.609Z,8.88
2023-04-02T08:54:38.664Z,12.30
2023-04-02T08:57:45.241Z,11.97
2023-04-02T09:00:52.244Z,10.88
2023-04-02T09:03:57.603Z,12.95
2023-04-02T09:07:01.900Z,15.20
2023-04-02T09:10:06.300Z,5.70
2023-04-02T09:13:22.047Z,19.48
2023-04-02T09:16:35.346Z,13.15
2023-04-02T09:19:43.159Z,14.75
2023-04-02T09:22:54.789Z,17.50
2023-04-02T09:26:04.570Z,16.42
2023-04-02T09:29:14.750Z,20.85
2023-04-02T09:32:37.369Z,14.52
2023-04-02T09:35:50.359Z,10.50
2023-04-02T09:39:22.277Z,16.77
2023-04-02T09:42:36.867Z,12.45
2023-04-02T09:45:42.867Z,10.40
2023-04-02T09:48:51.561Z,10.10
2023-04-02T09:52:21.091Z,10.93
2023-04-02T09:55:31.709Z,11.65
2023-04-02T09:58:34.827Z,13.30
2023-04-02T10:01:42.139Z,12.17
2023-04-02T10:04:48.406Z,8.88
2023-04-02T10:08:30.565Z,8.52
2023-04-02T10:12:00.839Z,9.30
2023-04-02T10:15:07.313Z,11.88
2023-04-02T10:18:35.622Z,10.18
2023-04-02T10:21:40.730Z,6.68
2023-04-02T10:24:44.066Z,8.47
2023-04-02T10:28:17.518Z,10.10
2023-04-02T10:31:52.341Z,10.55
2023-04-02T10:35:05.002Z,14.48
2023-04-02T10:38:26.226Z,12.10
2023-04-02T10:41:52.827Z,13.18
2023-04-02T10:45:20.946Z,9.23
2023-04-02T10:48:56.848Z,11.00
2023-04-02T10:52:07.035Z,9.18
2023-04-02T10:55:21.852Z,9.82
2023-04-02T10:58:31.806Z,10.63
2023-04-02T11:05:14.389Z,11.40
2023-04-02T11:08:28.261Z,10.23
2023-04-02T11:11:44.061Z,13.90
2023-04-02T11:14:47.298Z,11.65
2023-04-02T11:17:51.437Z,11.90
2023-04-02T11:21:50.982Z,14.82
2023-04-02T11:25:01.834Z,13.68
2023-04-02T11:28:33.269Z,14.00
2023-04-02T11:31:37.713Z,7.18
2023-04-02T11:35:28.245Z,12.30
2023-04-02T11:38:46.909Z,10.82
2023-04-02T11:42:06.437Z,12.95
2023-04-02T11:45:31.168Z,13.57
2023-04-02T11:48:37.946Z,14.48
2023-04-02T11:51:41.760Z,29.35
2023-04-02T11:55:27.761Z,27.63
2023-04-02T11:59:53.191Z,24.58
2023-04-02T12:03:20.972Z,18.30
2023-04-02T12:06:48.394Z,20.17
2023-04-02T12:10:01.268Z,13.60
2023-04-02T12:13:04.755Z,13.65
2023-04-02T12:16:13.633Z,16.08
2023-04-02T12:19:18.425Z,14.90
2023-04-02T12:22:48.072Z,12.60
2023-04-02T12:26:33.292Z,10.52
2023-04-02T12:29:39.631Z,15.70
2023-04-02T12:32:43.479Z,12.65
2023-04-02T12:35:56.398Z,9.32
2023-04-02T12:39:00.248Z,8.50
2023-04-02T12:42:28.867Z,8.30
2023-04-02T12:45:35.198Z,10.70
2023-04-02T12:49:11.330Z,9.43
2023-04-02T12:52:18.630Z,15.23
2023-04-02T12:55:25.430Z,11.43
2023-04-02T12:58:56.170Z,13.45
2023-04-02T13:02:01.563Z,15.65
2023-04-02T13:05:05.475Z,15.55
2023-04-02T13:08:23.238Z,10.48
2023-04-02T13:11:43.285Z,9.57
2023-04-02T13:14:47.192Z,10.50
2023-04-02T13:18:23.325Z,7.93
2023-04-02T13:21:31.131Z,6.82
2023-04-02T13:24:34.894Z,10.17
2023-04-02T13:27:38.694Z,12.13
2023-04-02T13:30:41.799Z,9.38
2023-04-02T13:34:09.960Z,7.13
2023-04-02T13:37:13.959Z,10.48
2023-04-02T13:40:20.268Z,11.57
2023-04-02T13:43:23.917Z,14.45
2023-04-02T13:46:42.384Z,14.43
2023-04-02T13:49:46.148Z,13.10
2023-04-02T13:52:53.942Z,10.70
2023-04-02T13:55:57.795Z,10.60
2023-04-02T13:59:02.406Z,19.25
2023-04-02T14:02:18.208Z,18.75
2023-04-02T14:05:48.066Z,12.43
2023-04-02T14:09:04.820Z,14.70
2023-04-02T14:12:32.930Z,14.77
2023-04-02T14:15:40.127Z,21.05
2023-04-02T14:19:18.852Z,16.13
2023-04-02T14:22:29.142Z,12.10
2023-04-02T14:25:56.303Z,12.55
2023-04-02T14:29:20.018Z,18.93
2023-04-02T14:32:55.901Z,10.43
2023-04-02T14:36:16.405Z,10.93
2023-04-02T14:39:35.959Z,19.02
2023-04-02T14:42:48.161Z,12.60
2023-04-02T14:45:59.748Z,20.73
2023-04-02T14:49:32.265Z,21.95
2023-04-02T14:52:37.835Z,19.03
2023-04-02T14:55:47.430Z,17.95
2023-04-02T14:59:14.614Z,12.30
2023-04-02T15:02:45.403Z,13.27
2023-04-02T15:05:59.091Z,8.95
2023-04-02T15:09:14.028Z,8.93
2023-04-02T15:12:33.211Z,7.78
2023-04-02T15:16:17.267Z,5.93
2023-04-02T15:19:20.559Z,7.05
2023-04-02T15:22:33.003Z,11.93
2023-04-02T15:25:49.674Z,13.90
2023-04-02T15:29:00.903Z,14.27
2023-04-02T15:32:25.343Z,17.75
2023-04-02T15:35:43.047Z,22.07
2023-04-02T15:38:54.138Z,21.05
2023-04-02T15:42:07.095Z,15.65
2023-04-02T15:45:23.460Z,15.23
2023-04-02T15:48:56.467Z,16.70
2023-04-02T15:52:20.956Z,15.25
2023-04-02T15:55:37.308Z,10.88
2023-04-02T15:59:19.361Z,11.10
2023-04-02T16:02:50.447Z,9.40
2023-04-02T16:06:19.211Z,8.57
2023-04-02T16:09:33.959Z,10.07
2023-04-02T16:12:38.989Z,14.02
2023-04-02T16:15:48.657Z,13.88
2023-04-02T16:19:01.883Z,12.50
2023-04-02T16:22:30.488Z,9.38
2023-04-02T16:26:03.686Z,12.80
2023-04-02T16:29:40.787Z,40.60
2023-04-02T16:33:12.270Z,51.63
2023-04-02T16:36:22.786Z,37.20
2023-04-02T16:39:42.022Z,34.78
2023-04-02T16:43:04.682Z,28.23
2023-04-02T16:46:38.915Z,24.08
2023-04-02T16:49:55.004Z,22.75
2023-04-02T16:53:27.146Z,23.05
2023-04-02T16:56:36.543Z,18.80
2023-04-02T17:00:00.171Z,18.98
2023-04-02T17:03:31.070Z,11.07
2023-04-02T17:06:45.074Z,7.20
2023-04-02T17:09:55.824Z,6.60
2023-04-02T17:13:33.249Z,4.60
2023-04-02T17:16:48.234Z,6.97
2023-04-02T17:19:57.134Z,2.38
2023-04-02T17:23:05.646Z,3.42
2023-04-02T17:26:12.393Z,4.22
2023-04-02T17:29:26.407Z,6.47
2023-04-02T17:32:37.796Z,5.45
2023-04-02T17:36:01.619Z,8.38
2023-04-02T17:39:33.186Z,7.27
2023-04-02T17:43:01.614Z,3.72
2023-04-02T17:46:21.881Z,6.65
2023-04-02T17:49:42.527Z,5.93
2023-04-02T17:52:56.734Z,8.52
2023-04-02T17:56:31.704Z,6.90
2023-04-02T17:59:49.411Z,14.65
2023-04-02T18:03:27.996Z,29.73
2023-04-02T18:06:48.187Z,21.48
2023-04-02T18:10:03.338Z,15.45
2023-04-02T18:13:27.564Z,7.93
2023-04-02T18:16:47.610Z,12.20
2023-04-02T18:20:10.284Z,12.23
2023-04-02T18:23:35.802Z,9.50
2023-04-02T18:26:51.144Z,8.98
2023-04-02T18:30:39.875Z,2.60
2023-04-02T18:33:55.158Z,4.82
2023-04-02T18:37:30.227Z,4.20
2023-04-02T18:40:43.878Z,12.85
2023-04-02T18:44:07.023Z,4.60
2023-04-02T18:47:48.818Z,7.53
2023-04-02T18:50:55.136Z,5.40
2023-04-02T18:54:24.133Z,3.60
2023-04-02T18:57:34.802Z,6.33
2023-04-02T19:00:42.288Z,4.55
2023-04-02T19:03:52.481Z,11.68
2023-04-02T19:07:03.613Z,7.97
2023-04-02T19:10:19.929Z,2.95
2023-04-02T19:13:22.941Z,3.85
2023-04-02T19:16:40.360Z,4.45
2023-04-02T19:20:07.879Z,3.63
2023-04-02T19:23:30.698Z,4.38
2023-04-02T19:26:52.229Z,12.93
2023-04-02T19:30:29.887Z,9.40
2023-04-02T19:33:58.372Z,5.22
2023-04-02T19:37:23.250Z,8.32
2023-04-02T19:40:52.059Z,6.97
2023-04-02T19:43:56.209Z,6.03
2023-04-02T19:47:00.992Z,11.10
2023-04-02T19:50:05.069Z,4.95
2023-04-02T19:53:08.904Z,5.73
2023-04-02T19:56:11.777Z,6.93
2023-04-02T19:59:18.028Z,9.80
2023-04-02T20:02:21.718Z,5.83
2023-04-02T20:05:25.042Z,4.20
2023-04-02T20:08:28.656Z,7.95
2023-04-02T20:11:32.287Z,5.70
2023-04-02T20:14:36.198Z,4.65
2023-04-02T20:17:39.759Z,3.72
2023-04-02T20:20:46.641Z,4.85
2023-04-02T20:23:55.006Z,8.50
2023-04-02T20:26:58.766Z,3.45
2023-04-02T20:30:02.674Z,4.93
2023-04-02T20:33:06.690Z,7.43
2023-04-02T20:36:13.454Z,6.60
2023-04-02T20:39:20.008Z,4.90
2023-04-02T20:42:23.965Z,2.30
2023-04-02T20:45:29.857Z,1.58
2023-04-02T20:48:34.942Z,3.67
2023-04-02T20:51:38.671Z,4.60
2023-04-02T20:54:42.303Z,2.30
2023-04-02T20:57:46.177Z,5.32
2023-04-02T21:00:49.367Z,5.47
2023-04-02T21:04:01.820Z,9.40
2023-04-02T21:07:05.560Z,8.48
2023-04-02T21:10:08.879Z,6.03
2023-04-02T21:13:12.984Z,2.47
2023-04-02T21:16:24.165Z,2.03
2023-04-02T21:19:27.713Z,3.03
2023-04-02T21:22:31.323Z,2.05
2023-04-02T21:25:34.486Z,2.60
2023-04-02T21:28:38.600Z,6.53
2023-04-02T21:31:43.298Z,11.13
2023-04-02T21:34:47.237Z,10.00
2023-04-02T21:37:50.966Z,9.18
2023-04-02T21:40:54.573Z,8.10
2023-04-02T21:44:00.203Z,8.52
2023-04-02T21:47:03.286Z,7.45
2023-04-02T21:50:07.222Z,9.52
2023-04-02T21:53:10.113Z,10.35
2023-04-02T21:56:21.665Z,7.60
2023-04-02T21:59:25.411Z,9.70
2023-04-02T22:02:29.275Z,4.88
2023-04-02T22:05:33.106Z,6.77
2023-04-02T22:08:38.727Z,4.15
2023-04-02T22:11:47.245Z,3.00
2023-04-02T22:14:50.512Z,5.72
2023-04-02T22:17:54.971Z,5.20
2023-04-02T22:20:59.445Z,5.68
2023-04-02T22:24:04.971Z,5.30
2023-04-02T22:27:07.964Z,6.40
2023-04-02T22:30:11.238Z,5.90
2023-04-02T22:33:14.557Z,6.55
2023-04-02T22:36:19.468Z,4.50
2023-04-02T22:39:22.402Z,7.80
2023-04-02T22:42:27.294Z,11.43
2023-04-02T22:45:30.759Z,18.38
2023-04-02T22:48:34.691Z,12.60
2023-04-02T22:51:38.629Z,12.68
2023-04-02T22:54:42.334Z,12.00
2023-04-02T22:57:46.372Z,7.00
2023-04-02T23:00:50.395Z,3.70
2023-04-02T23:03:55.611Z,11.43
2023-04-02T23:06:58.622Z,3.22
2023-04-02T23:10:03.866Z,9.20
2023-04-02T23:13:07.981Z,6.47
2023-04-02T23:16:15.686Z,3.58
2023-04-02T23:19:18.755Z,9.83
2023-04-02T23:22:22.459Z,6.00
2023-04-02T23:25:25.964Z,9.00
2023-04-02T23:28:29.663Z,13.07
2023-04-02T23:31:33.920Z,9.10
2023-04-02T23:34:37.767Z,6.38
2023-04-02T23:37:42.601Z,15.18
2023-04-02T23:40:45.919Z,19.15
2023-04-02T23:43:48.911Z,15.05
2023-04-02T23:46:53.231Z,14.23
2023-04-02T23:49:56.940Z,18.60
2023-04-02T23:52:59.937Z,15.43
2023-04-02T23:56:03.804Z,13.00
2023-04-02T23:59:08.725Z,7.23
